sensor_id;sensor_type;location;lat;lon;timestamp;pressure;altitude;pressure_sealevel;temperature;humidity
72359;BME280;60317;48.880;-0.862;2023-05-25T00:00:57;101223.34;;;20.41;43.42
72359;BME280;60317;48.880;-0.862;2023-05-25T00:03:28;101227.69;;;20.31;43.61
72359;BME280;60317;48.880;-0.862;2023-05-25T00:05:55;101221.69;;;20.27;43.81
72359;BME280;60317;48.880;-0.862;2023-05-25T00:08:21;101218.16;;;20.27;43.81
72359;BME280;60317;48.880;-0.862;2023-05-25T00:10:49;101221.25;;;20.34;43.64
72359;BME280;60317;48.880;-0.862;2023-05-25T00:13:15;101227.47;;;20.34;43.62
72359;BME280;60317;48.880;-0.862;2023-05-25T00:15:42;101226.50;;;20.35;43.77
72359;BME280;60317;48.880;-0.862;2023-05-25T00:18:09;101218.34;;;20.37;43.91
72359;BME280;60317;48.880;-0.862;2023-05-25T00:20:36;101218.78;;;20.31;44.05
72359;BME280;60317;48.880;-0.862;2023-05-25T00:23:03;101215.69;;;20.24;43.91
72359;BME280;60317;48.880;-0.862;2023-05-25T00:25:29;101215.47;;;20.27;43.96
72359;BME280;60317;48.880;-0.862;2023-05-25T00:27:57;101209.88;;;20.30;43.92
72359;BME280;60317;48.880;-0.862;2023-05-25T00:30:24;101206.97;;;20.33;43.88
72359;BME280;60317;48.880;-0.862;2023-05-25T00:32:50;101204.06;;;20.36;43.84
72359;BME280;60317;48.880;-0.862;2023-05-25T00:35:16;101207.47;;;20.38;43.98
72359;BME280;60317;48.880;-0.862;2023-05-25T00:37:43;101202.94;;;20.39;44.07
72359;BME280;60317;48.880;-0.862;2023-05-25T00:40:13;101206.66;;;20.25;44.14
72359;BME280;60317;48.880;-0.862;2023-05-25T00:42:40;101204.13;;;20.23;44.29
72359;BME280;60317;48.880;-0.862;2023-05-25T00:45:08;101208.41;;;20.26;43.98
72359;BME280;60317;48.880;-0.862;2023-05-25T00:47:36;101207.28;;;20.29;44.17
72359;BME280;60317;48.880;-0.862;2023-05-25T00:50:03;101214.19;;;20.33;43.94
72359;BME280;60317;48.880;-0.862;2023-05-25T00:52:33;101208.69;;;20.34;44.06
72359;BME280;60317;48.880;-0.862;2023-05-25T00:55:01;101210.38;;;20.35;44.00
72359;BME280;60317;48.880;-0.862;2023-05-25T00:57:28;101213.53;;;20.29;44.06
72359;BME280;60317;48.880;-0.862;2023-05-25T00:59:57;101207.03;;;20.20;44.45
72359;BME280;60317;48.880;-0.862;2023-05-25T01:02:26;101210.25;;;20.25;44.43
72359;BME280;60317;48.880;-0.862;2023-05-25T01:04:55;101219.78;;;20.30;44.32
72359;BME280;60317;48.880;-0.862;2023-05-25T01:07:23;101208.81;;;20.33;44.34
72359;BME280;60317;48.880;-0.862;2023-05-25T01:09:54;101206.84;;;20.35;44.42
72359;BME280;60317;48.880;-0.862;2023-05-25T01:12:23;101202.56;;;20.32;44.46
72359;BME280;60317;48.880;-0.862;2023-05-25T01:14:53;101204.91;;;20.37;44.51
72359;BME280;60317;48.880;-0.862;2023-05-25T01:17:20;101196.06;;;20.23;44.61
72359;BME280;60317;48.880;-0.862;2023-05-25T01:19:48;101193.25;;;20.25;44.62
72359;BME280;60317;48.880;-0.862;2023-05-25T01:22:42;101204.50;;;20.30;44.47
72359;BME280;60317;48.880;-0.862;2023-05-25T01:25:12;101195.47;;;20.31;44.70
72359;BME280;60317;48.880;-0.862;2023-05-25T01:27:43;101195.38;;;20.33;44.65
72359;BME280;60317;48.880;-0.862;2023-05-25T01:30:13;101200.63;;;20.34;44.86
72359;BME280;60317;48.880;-0.862;2023-05-25T01:32:41;101199.66;;;20.35;44.85
72359;BME280;60317;48.880;-0.862;2023-05-25T01:35:09;101193.56;;;20.33;44.98
72359;BME280;60317;48.880;-0.862;2023-05-25T01:37:44;101191.53;;;20.24;45.22
72359;BME280;60317;48.880;-0.862;2023-05-25T01:40:12;101193.25;;;20.25;45.24
72359;BME280;60317;48.880;-0.862;2023-05-25T01:42:39;101186.72;;;20.29;45.08
72359;BME280;60317;48.880;-0.862;2023-05-25T01:45:07;101192.94;;;20.30;45.20
72359;BME280;60317;48.880;-0.862;2023-05-25T01:47:39;101191.81;;;20.32;45.20
72359;BME280;60317;48.880;-0.862;2023-05-25T01:50:17;101188.28;;;20.32;45.31
72359;BME280;60317;48.880;-0.862;2023-05-25T01:52:51;101188.19;;;20.33;45.19
72359;BME280;60317;48.880;-0.862;2023-05-25T01:55:20;101181.78;;;20.23;45.36
72359;BME280;60317;48.880;-0.862;2023-05-25T01:57:49;101182.88;;;20.20;45.34
72359;BME280;60317;48.880;-0.862;2023-05-25T02:00:17;101183.63;;;20.22;45.29
72359;BME280;60317;48.880;-0.862;2023-05-25T02:02:46;101183.41;;;20.25;45.36
72359;BME280;60317;48.880;-0.862;2023-05-25T02:05:13;101178.97;;;20.24;45.28
72359;BME280;60317;48.880;-0.862;2023-05-25T02:07:39;101175.22;;;20.27;45.20
72359;BME280;60317;48.880;-0.862;2023-05-25T02:10:08;101179.50;;;20.30;45.13
72359;BME280;60317;48.880;-0.862;2023-05-25T02:12:34;101169.84;;;20.27;45.23
72359;BME280;60317;48.880;-0.862;2023-05-25T02:15:01;101183.09;;;20.17;45.35
72359;BME280;60317;48.880;-0.862;2023-05-25T02:17:27;101175.16;;;20.16;45.47
72359;BME280;60317;48.880;-0.862;2023-05-25T02:19:54;101184.69;;;20.20;45.37
72359;BME280;60317;48.880;-0.862;2023-05-25T02:22:21;101181.03;;;20.21;45.32
72359;BME280;60317;48.880;-0.862;2023-05-25T02:24:48;101183.50;;;20.24;45.26
72359;BME280;60317;48.880;-0.862;2023-05-25T02:27:16;101179.72;;;20.26;45.21
72359;BME280;60317;48.880;-0.862;2023-05-25T02:29:42;101184.97;;;20.28;45.28
72359;BME280;60317;48.880;-0.862;2023-05-25T02:32:10;101187.88;;;20.25;45.21
72359;BME280;60317;48.880;-0.862;2023-05-25T02:34:36;101174.63;;;20.11;45.39
72359;BME280;60317;48.880;-0.862;2023-05-25T02:37:03;101176.38;;;20.12;45.38
72359;BME280;60317;48.880;-0.862;2023-05-25T02:39:30;101183.31;;;20.14;45.41
72359;BME280;60317;48.880;-0.862;2023-05-25T02:41:56;101179.69;;;20.15;45.33
72359;BME280;60317;48.880;-0.862;2023-05-25T02:44:24;101183.94;;;20.18;45.33
72359;BME280;60317;48.880;-0.862;2023-05-25T02:46:51;101172.56;;;20.14;45.51
72359;BME280;60317;48.880;-0.862;2023-05-25T02:49:17;101176.03;;;20.16;45.39
72359;BME280;60317;48.880;-0.862;2023-05-25T02:51:44;101180.19;;;20.20;45.50
72359;BME280;60317;48.880;-0.862;2023-05-25T02:54:10;101173.78;;;20.10;45.52
72359;BME280;60317;48.880;-0.862;2023-05-25T02:56:38;101174.13;;;20.06;45.60
72359;BME280;60317;48.880;-0.862;2023-05-25T02:59:04;101177.09;;;20.14;45.42
72359;BME280;60317;48.880;-0.862;2023-05-25T03:01:32;101170.66;;;20.16;45.35
72359;BME280;60317;48.880;-0.862;2023-05-25T03:03:58;101179.31;;;20.20;45.45
72359;BME280;60317;48.880;-0.862;2023-05-25T03:06:25;101175.66;;;20.21;45.42
72359;BME280;60317;48.880;-0.862;2023-05-25T03:08:52;101166.75;;;20.20;45.45
72359;BME280;60317;48.880;-0.862;2023-05-25T03:11:18;101176.66;;;20.20;45.29
72359;BME280;60317;48.880;-0.862;2023-05-25T03:13:45;101169.50;;;20.08;45.32
72359;BME280;60317;48.880;-0.862;2023-05-25T03:16:11;101168.00;;;20.03;45.48
72359;BME280;60317;48.880;-0.862;2023-05-25T03:18:39;101161.56;;;20.06;45.15
72359;BME280;60317;48.880;-0.862;2023-05-25T03:21:06;101164.13;;;20.08;45.31
72359;BME280;60317;48.880;-0.862;2023-05-25T03:23:32;101157.81;;;20.09;45.38
72359;BME280;60317;48.880;-0.862;2023-05-25T03:25:59;101170.16;;;20.11;45.23
72359;BME280;60317;48.880;-0.862;2023-05-25T03:28:25;101167.34;;;20.13;45.15
72359;BME280;60317;48.880;-0.862;2023-05-25T03:30:52;101164.53;;;20.14;45.15
72359;BME280;60317;48.880;-0.862;2023-05-25T03:33:18;101180.34;;;20.06;45.34
72359;BME280;60317;48.880;-0.862;2023-05-25T03:35:46;101168.22;;;20.00;45.42
72359;BME280;60317;48.880;-0.862;2023-05-25T03:38:12;101173.16;;;20.07;45.18
72359;BME280;60317;48.880;-0.862;2023-05-25T03:40:39;101176.06;;;20.03;45.23
72359;BME280;60317;48.880;-0.862;2023-05-25T03:43:05;101178.66;;;20.05;45.16
72359;BME280;60317;48.880;-0.862;2023-05-25T03:45:32;101183.16;;;20.05;45.15
72359;BME280;60317;48.880;-0.862;2023-05-25T03:47:58;101184.00;;;20.05;45.23
72359;BME280;60317;48.880;-0.862;2023-05-25T03:50:25;101180.22;;;20.08;45.18
72359;BME280;60317;48.880;-0.862;2023-05-25T03:52:53;101190.31;;;20.04;45.28
72359;BME280;60317;48.880;-0.862;2023-05-25T03:55:19;101184.69;;;19.96;45.55
72359;BME280;60317;48.880;-0.862;2023-05-25T03:57:46;101198.84;;;19.98;45.33
72359;BME280;60317;48.880;-0.862;2023-05-25T04:00:13;101199.56;;;20.00;45.22
72359;BME280;60317;48.880;-0.862;2023-05-25T04:02:40;101208.38;;;20.02;45.23
72359;BME280;60317;48.880;-0.862;2023-05-25T04:05:07;101197.75;;;20.00;45.40
72359;BME280;60317;48.880;-0.862;2023-05-25T04:07:34;101202.88;;;20.03;45.50
72359;BME280;60317;48.880;-0.862;2023-05-25T04:10:02;101196.56;;;20.05;45.61
72359;BME280;60317;48.880;-0.862;2023-05-25T04:12:28;101202.88;;;20.03;45.64
72359;BME280;60317;48.880;-0.862;2023-05-25T04:14:54;101203.69;;;19.93;46.02
72359;BME280;60317;48.880;-0.862;2023-05-25T04:17:21;101202.59;;;19.95;45.93
72359;BME280;60317;48.880;-0.862;2023-05-25T04:19:47;101202.38;;;19.98;46.14
72359;BME280;60317;48.880;-0.862;2023-05-25T04:22:14;101212.28;;;19.98;46.33
72359;BME280;60317;48.880;-0.862;2023-05-25T04:24:40;101215.59;;;20.01;46.37
72359;BME280;60317;48.880;-0.862;2023-05-25T04:27:08;101210.31;;;20.00;46.45
72359;BME280;60317;48.880;-0.862;2023-05-25T04:29:35;101210.22;;;20.01;46.55
72359;BME280;60317;48.880;-0.862;2023-05-25T04:32:01;101211.06;;;20.02;46.66
72359;BME280;60317;48.880;-0.862;2023-05-25T04:34:28;101226.09;;;20.05;46.73
72359;BME280;60317;48.880;-0.862;2023-05-25T04:36:54;101229.31;;;19.97;46.75
72359;BME280;60317;48.880;-0.862;2023-05-25T04:39:21;101225.56;;;19.99;46.83
72359;BME280;60317;48.880;-0.862;2023-05-25T04:41:47;101219.13;;;20.02;46.92
72359;BME280;60317;48.880;-0.862;2023-05-25T04:44:15;101221.59;;;20.05;46.74
72359;BME280;60317;48.880;-0.862;2023-05-25T04:46:42;101233.16;;;20.06;46.95
72359;BME280;60317;48.880;-0.862;2023-05-25T04:49:08;101239.16;;;20.09;46.64
72359;BME280;60317;48.880;-0.862;2023-05-25T04:51:35;101236.03;;;20.15;46.68
72359;BME280;60317;48.880;-0.862;2023-05-25T04:54:01;101243.63;;;20.21;46.42
72359;BME280;60317;48.880;-0.862;2023-05-25T04:56:28;101242.97;;;20.18;46.80
72359;BME280;60317;48.880;-0.862;2023-05-25T04:58:54;101236.34;;;20.11;46.78
72359;BME280;60317;48.880;-0.862;2023-05-25T05:01:22;101244.94;;;20.16;46.73
72359;BME280;60317;48.880;-0.862;2023-05-25T05:03:48;101239.13;;;20.22;46.57
72359;BME280;60317;48.880;-0.862;2023-05-25T05:06:16;101238.88;;;20.25;46.57
72359;BME280;60317;48.880;-0.862;2023-05-25T05:08:42;101239.28;;;20.32;46.48
72359;BME280;60317;48.880;-0.862;2023-05-25T05:11:09;101248.09;;;20.34;46.47
72359;BME280;60317;48.880;-0.862;2023-05-25T05:13:35;101246.25;;;20.34;46.56
72359;BME280;60317;48.880;-0.862;2023-05-25T05:16:02;101244.09;;;20.15;48.79
72359;BME280;60317;48.880;-0.862;2023-05-25T05:18:30;101236.97;;;19.90;51.85
72359;BME280;60317;48.880;-0.862;2023-05-25T05:20:56;101250.16;;;19.93;51.20
72359;BME280;60317;48.880;-0.862;2023-05-25T05:23:23;101253.72;;;19.94;50.91
72359;BME280;60317;48.880;-0.862;2023-05-25T05:25:49;101252.97;;;19.79;51.76
72359;BME280;60317;48.880;-0.862;2023-05-25T05:28:16;101261.78;;;19.81;51.87
72359;BME280;60317;48.880;-0.862;2023-05-25T05:30:42;101256.97;;;19.73;52.23
72359;BME280;60317;48.880;-0.862;2023-05-25T05:33:09;101262.72;;;19.93;51.13
72359;BME280;60317;48.880;-0.862;2023-05-25T05:35:37;101256.97;;;20.10;50.50
72359;BME280;60317;48.880;-0.862;2023-05-25T05:38:03;101264.59;;;20.03;50.44
72359;BME280;60317;48.880;-0.862;2023-05-25T05:40:30;101263.13;;;19.99;50.30
72359;BME280;60317;48.880;-0.862;2023-05-25T05:42:56;101268.41;;;20.01;50.20
72359;BME280;60317;48.880;-0.862;2023-05-25T05:45:23;101270.84;;;20.04;50.07
72359;BME280;60317;48.880;-0.862;2023-05-25T05:47:49;101271.38;;;20.09;49.94
72359;BME280;60317;48.880;-0.862;2023-05-25T05:50:16;101272.44;;;20.07;49.71
72359;BME280;60317;48.880;-0.862;2023-05-25T05:52:44;101269.53;;;20.10;49.63
72359;BME280;60317;48.880;-0.862;2023-05-25T05:55:10;101267.72;;;20.10;49.68
72359;BME280;60317;48.880;-0.862;2023-05-25T05:57:37;101265.66;;;20.14;49.44
72359;BME280;60317;48.880;-0.862;2023-05-25T06:00:04;101268.78;;;20.08;49.54
72359;BME280;60317;48.880;-0.862;2023-05-25T06:02:31;101262.16;;;20.00;49.55
72359;BME280;60317;48.880;-0.862;2023-05-25T06:04:58;101271.81;;;20.03;49.40
72359;BME280;60317;48.880;-0.862;2023-05-25T06:07:24;101278.88;;;20.04;49.29
72359;BME280;60317;48.880;-0.862;2023-05-25T06:09:52;101272.44;;;20.07;49.08
72359;BME280;60317;48.880;-0.862;2023-05-25T06:12:18;101278.22;;;20.13;49.02
72359;BME280;60317;48.880;-0.862;2023-05-25T06:14:45;101281.97;;;20.11;48.66
72359;BME280;60317;48.880;-0.862;2023-05-25T06:17:11;101287.88;;;20.16;48.71
72359;BME280;60317;48.880;-0.862;2023-05-25T06:19:38;101276.09;;;20.06;49.16
72359;BME280;60317;48.880;-0.862;2023-05-25T06:22:04;101291.91;;;19.97;49.40
72359;BME280;60317;48.880;-0.862;2023-05-25T06:24:31;101286.97;;;19.91;49.38
72359;BME280;60317;48.880;-0.862;2023-05-25T06:26:59;101289.44;;;19.94;49.32
72359;BME280;60317;48.880;-0.862;2023-05-25T06:29:25;101285.66;;;19.97;49.33
72359;BME280;60317;48.880;-0.862;2023-05-25T06:31:52;101291.16;;;19.95;49.29
72359;BME280;60317;48.880;-0.862;2023-05-25T06:34:18;101293.31;;;19.90;49.51
72359;BME280;60317;48.880;-0.862;2023-05-25T06:36:45;101296.94;;;19.89;49.46
72359;BME280;60317;48.880;-0.862;2023-05-25T06:39:11;101293.41;;;19.89;49.21
72359;BME280;60317;48.880;-0.862;2023-05-25T06:41:38;101298.03;;;19.87;49.30
72359;BME280;60317;48.880;-0.862;2023-05-25T06:44:06;101292.03;;;19.83;49.36
72359;BME280;60317;48.880;-0.862;2023-05-25T06:46:32;101288.81;;;19.78;49.39
72359;BME280;60317;48.880;-0.862;2023-05-25T06:48:59;101289.38;;;19.70;49.56
72359;BME280;60317;48.880;-0.862;2023-05-25T06:51:26;101296.00;;;19.77;49.50
72359;BME280;60317;48.880;-0.862;2023-05-25T06:53:53;101293.13;;;19.81;49.38
72359;BME280;60317;48.880;-0.862;2023-05-25T06:56:20;101294.81;;;19.82;49.33
72359;BME280;60317;48.880;-0.862;2023-05-25T06:58:47;101290.22;;;19.84;49.66
72359;BME280;60317;48.880;-0.862;2023-05-25T07:01:15;101291.16;;;19.83;49.73
72359;BME280;60317;48.880;-0.862;2023-05-25T07:03:42;101295.25;;;19.88;49.43
72359;BME280;60317;48.880;-0.862;2023-05-25T07:06:08;101286.22;;;19.89;49.37
72359;BME280;60317;48.880;-0.862;2023-05-25T07:08:35;101290.50;;;19.92;49.69
72359;BME280;60317;48.880;-0.862;2023-05-25T07:11:01;101296.94;;;19.89;49.76
72359;BME280;60317;48.880;-0.862;2023-05-25T07:13:28;101301.25;;;19.92;49.79
72359;BME280;60317;48.880;-0.862;2023-05-25T07:15:55;101303.72;;;19.95;49.72
72359;BME280;60317;48.880;-0.862;2023-05-25T07:18:22;101303.06;;;19.91;50.01
72359;BME280;60317;48.880;-0.862;2023-05-25T07:20:49;101310.16;;;19.92;49.74
72359;BME280;60317;48.880;-0.862;2023-05-25T07:23:15;101309.81;;;19.97;50.02
72359;BME280;60317;48.880;-0.862;2023-05-25T07:25:42;101304.22;;;20.00;50.08
72359;BME280;60317;48.880;-0.862;2023-05-25T07:28:09;101305.63;;;20.06;49.85
72359;BME280;60317;48.880;-0.862;2023-05-25T07:30:35;101309.91;;;20.08;49.74
72359;BME280;60317;48.880;-0.862;2023-05-25T07:33:02;101314.66;;;20.05;50.25
72359;BME280;60317;48.880;-0.862;2023-05-25T07:35:30;101314.00;;;20.01;49.99
72359;BME280;60317;48.880;-0.862;2023-05-25T07:37:57;101310.22;;;20.16;49.41
72359;BME280;60317;48.880;-0.862;2023-05-25T07:40:23;101304.47;;;20.34;49.24
72359;BME280;60317;48.880;-0.862;2023-05-25T07:42:50;101309.41;;;20.40;48.86
72359;BME280;60317;48.880;-0.862;2023-05-25T07:45:16;101311.50;;;20.47;48.58
72359;BME280;60317;48.880;-0.862;2023-05-25T07:47:43;101310.34;;;20.52;48.66
72359;BME280;60317;48.880;-0.862;2023-05-25T07:50:10;101311.72;;;20.57;48.30
72359;BME280;60317;48.880;-0.862;2023-05-25T07:52:38;101315.06;;;20.61;48.01
72359;BME280;60317;48.880;-0.862;2023-05-25T07:55:05;101316.34;;;20.55;48.17
72359;BME280;60317;48.880;-0.862;2023-05-25T07:57:32;101305.16;;;20.61;48.14
72359;BME280;60317;48.880;-0.862;2023-05-25T07:59:58;101314.34;;;20.70;47.82
72359;BME280;60317;48.880;-0.862;2023-05-25T08:02:25;101310.72;;;20.71;47.68
72359;BME280;60317;48.880;-0.862;2023-05-25T08:04:52;101314.13;;;20.73;47.67
72359;BME280;60317;48.880;-0.862;2023-05-25T08:07:19;101318.59;;;20.61;48.01
72359;BME280;60317;48.880;-0.862;2023-05-25T08:09:47;101318.28;;;20.53;48.34
72359;BME280;60317;48.880;-0.862;2023-05-25T08:12:13;101316.25;;;20.44;48.04
72359;BME280;60317;48.880;-0.862;2023-05-25T08:14:59;101315.50;;;20.42;48.29
72359;BME280;60317;48.880;-0.862;2023-05-25T08:17:26;101322.06;;;20.51;48.61
72359;BME280;60317;48.880;-0.862;2023-05-25T08:19:53;101320.88;;;20.55;49.18
72359;BME280;60317;48.880;-0.862;2023-05-25T08:22:20;101317.72;;;20.61;48.77
72359;BME280;60317;48.880;-0.862;2023-05-25T08:24:48;101312.69;;;20.56;48.22
72359;BME280;60317;48.880;-0.862;2023-05-25T08:27:14;101315.06;;;20.48;48.55
72359;BME280;60317;48.880;-0.862;2023-05-25T08:29:41;101320.56;;;20.46;48.37
72359;BME280;60317;48.880;-0.862;2023-05-25T08:32:08;101329.84;;;20.66;48.18
72359;BME280;60317;48.880;-0.862;2023-05-25T08:34:35;101327.09;;;20.79;47.76
72359;BME280;60317;48.880;-0.862;2023-05-25T08:37:01;101320.78;;;20.91;47.82
72359;BME280;60317;48.880;-0.862;2023-05-25T08:39:28;101316.34;;;21.03;47.38
72359;BME280;60317;48.880;-0.862;2023-05-25T08:41:56;101318.88;;;21.05;47.27
72359;BME280;60317;48.880;-0.862;2023-05-25T08:44:22;101315.34;;;21.04;47.14
72359;BME280;60317;48.880;-0.862;2023-05-25T08:46:49;101316.03;;;20.95;47.46
72359;BME280;60317;48.880;-0.862;2023-05-25T08:49:16;101310.44;;;20.98;47.26
72359;BME280;60317;48.880;-0.862;2023-05-25T08:51:47;101312.41;;;20.96;47.28
72359;BME280;60317;48.880;-0.862;2023-05-25T08:54:17;101310.25;;;20.88;47.97
72359;BME280;60317;48.880;-0.862;2023-05-25T08:56:48;101322.72;;;20.78;48.30
72359;BME280;60317;48.880;-0.862;2023-05-25T08:59:27;101324.63;;;20.76;47.51
72359;BME280;60317;48.880;-0.862;2023-05-25T09:02:03;101323.56;;;20.79;47.37
72359;BME280;60317;48.880;-0.862;2023-05-25T09:04:33;101337.22;;;20.76;47.37
72359;BME280;60317;48.880;-0.862;2023-05-25T09:07:00;101322.81;;;20.77;47.04
72359;BME280;60317;48.880;-0.862;2023-05-25T09:09:36;101324.41;;;20.79;46.83
72359;BME280;60317;48.880;-0.862;2023-05-25T09:12:04;101315.00;;;20.85;46.35
72359;BME280;60317;48.880;-0.862;2023-05-25T09:14:33;101321.78;;;20.90;46.18
72359;BME280;60317;48.880;-0.862;2023-05-25T09:17:00;101322.03;;;20.98;45.95
72359;BME280;60317;48.880;-0.862;2023-05-25T09:19:27;101318.72;;;20.95;46.23
72359;BME280;60317;48.880;-0.862;2023-05-25T09:21:53;101321.09;;;21.00;46.07
72359;BME280;60317;48.880;-0.862;2023-05-25T09:24:33;101315.13;;;21.07;45.97
72359;BME280;60317;48.880;-0.862;2023-05-25T09:26:59;101328.50;;;21.20;45.75
72359;BME280;60317;48.880;-0.862;2023-05-25T09:29:26;101322.13;;;21.21;45.39
72359;BME280;60317;48.880;-0.862;2023-05-25T09:31:55;101332.53;;;21.26;45.33
72359;BME280;60317;48.880;-0.862;2023-05-25T09:34:21;101337.50;;;21.19;45.37
72359;BME280;60317;48.880;-0.862;2023-05-25T09:36:48;101326.03;;;21.17;45.25
72359;BME280;60317;48.880;-0.862;2023-05-25T09:39:15;101343.19;;;21.27;45.28
72359;BME280;60317;48.880;-0.862;2023-05-25T09:41:42;101336.59;;;21.31;45.16
72359;BME280;60317;48.880;-0.862;2023-05-25T09:44:09;101337.84;;;21.38;44.87
72359;BME280;60317;48.880;-0.862;2023-05-25T09:46:37;101336.63;;;21.42;44.67
72359;BME280;60317;48.880;-0.862;2023-05-25T09:49:07;101334.81;;;21.43;44.80
72359;BME280;60317;48.880;-0.862;2023-05-25T09:51:34;101326.13;;;21.39;44.71
72359;BME280;60317;48.880;-0.862;2023-05-25T09:54:02;101332.72;;;21.35;44.69
72359;BME280;60317;48.880;-0.862;2023-05-25T09:56:30;101331.13;;;21.44;44.68
72359;BME280;60317;48.880;-0.862;2023-05-25T09:58:58;101341.31;;;21.52;44.60
72359;BME280;60317;48.880;-0.862;2023-05-25T10:01:24;101335.31;;;21.48;44.07
72359;BME280;60317;48.880;-0.862;2023-05-25T10:03:51;101335.41;;;21.47;44.41
72359;BME280;60317;48.880;-0.862;2023-05-25T10:06:32;101334.19;;;21.51;44.28
72359;BME280;60317;48.880;-0.862;2023-05-25T10:08:59;101336.63;;;21.42;44.15
72359;BME280;60317;48.880;-0.862;2023-05-25T10:11:27;101326.47;;;21.35;44.21
72359;BME280;60317;48.880;-0.862;2023-05-25T10:13:54;101324.50;;;21.37;44.34
72359;BME280;60317;48.880;-0.862;2023-05-25T10:16:24;101335.03;;;21.40;43.90
72359;BME280;60317;48.880;-0.862;2023-05-25T10:19:00;101331.25;;;21.42;44.06
72359;BME280;60317;48.880;-0.862;2023-05-25T10:21:28;101336.16;;;21.49;43.56
72359;BME280;60317;48.880;-0.862;2023-05-25T10:24:02;101339.81;;;21.48;43.54
72359;BME280;60317;48.880;-0.862;2023-05-25T10:26:34;101348.19;;;21.32;44.09
72359;BME280;60317;48.880;-0.862;2023-05-25T10:29:02;101339.78;;;21.36;43.94
72359;BME280;60317;48.880;-0.862;2023-05-25T10:31:29;101336.13;;;21.37;43.73
72359;BME280;60317;48.880;-0.862;2023-05-25T10:33:57;101341.25;;;21.40;43.51
72359;BME280;60317;48.880;-0.862;2023-05-25T10:36:24;101346.41;;;21.43;43.57
72359;BME280;60317;48.880;-0.862;2023-05-25T10:38:53;101341.03;;;21.43;43.44
72359;BME280;60317;48.880;-0.862;2023-05-25T10:41:21;101321.34;;;21.43;43.67
72359;BME280;60317;48.880;-0.862;2023-05-25T10:43:48;101331.91;;;21.22;43.84
72359;BME280;60317;48.880;-0.862;2023-05-25T10:46:16;101333.72;;;21.10;44.13
72359;BME280;60317;48.880;-0.862;2023-05-25T10:48:46;101335.00;;;21.05;44.40
72359;BME280;60317;48.880;-0.862;2023-05-25T10:51:13;101341.38;;;21.04;44.84
72359;BME280;60317;48.880;-0.862;2023-05-25T10:53:42;101340.94;;;21.21;44.29
72359;BME280;60317;48.880;-0.862;2023-05-25T10:56:09;101334.84;;;21.30;43.96
72359;BME280;60317;48.880;-0.862;2023-05-25T10:58:40;101331.50;;;21.15;44.05
72359;BME280;60317;48.880;-0.862;2023-05-25T11:01:09;101329.56;;;21.17;44.03
72359;BME280;60317;48.880;-0.862;2023-05-25T11:03:47;101314.06;;;21.21;44.23
72359;BME280;60317;48.880;-0.862;2023-05-25T11:06:15;101327.91;;;21.28;44.13
72359;BME280;60317;48.880;-0.862;2023-05-25T11:08:50;101340.00;;;21.33;44.18
72359;BME280;60317;48.880;-0.862;2023-05-25T11:11:19;101335.59;;;21.32;44.03
72359;BME280;60317;48.880;-0.862;2023-05-25T11:13:47;101336.81;;;21.28;44.36
72359;BME280;60317;48.880;-0.862;2023-05-25T11:16:17;101324.50;;;21.37;44.44
72359;BME280;60317;48.880;-0.862;2023-05-25T11:18:48;101330.28;;;21.43;44.24
72359;BME280;60317;48.880;-0.862;2023-05-25T11:21:16;101333.72;;;21.46;44.80
72359;BME280;60317;48.880;-0.862;2023-05-25T11:23:52;101326.25;;;21.38;44.24
72359;BME280;60317;48.880;-0.862;2023-05-25T11:26:19;101334.56;;;21.35;44.39
72359;BME280;60317;48.880;-0.862;2023-05-25T11:28:50;101328.81;;;21.39;43.95
72359;BME280;60317;48.880;-0.862;2023-05-25T11:31:19;101320.28;;;21.46;44.24
72359;BME280;60317;48.880;-0.862;2023-05-25T11:33:45;101328.59;;;21.54;44.24
72359;BME280;60317;48.880;-0.862;2023-05-25T11:36:12;101326.28;;;21.60;44.46
72359;BME280;60317;48.880;-0.862;2023-05-25T11:38:40;101321.75;;;21.61;44.00
72359;BME280;60317;48.880;-0.862;2023-05-25T11:41:16;101312.34;;;21.66;44.05
72359;BME280;60317;48.880;-0.862;2023-05-25T11:43:45;101309.53;;;21.57;44.13
72359;BME280;60317;48.880;-0.862;2023-05-25T11:46:14;101308.16;;;21.40;44.36
72359;BME280;60317;48.880;-0.862;2023-05-25T11:48:43;101304.59;;;21.39;44.43
72359;BME280;60317;48.880;-0.862;2023-05-25T11:51:10;101303.97;;;21.36;44.71
72359;BME280;60317;48.880;-0.862;2023-05-25T11:53:40;101301.00;;;21.28;44.60
72359;BME280;60317;48.880;-0.862;2023-05-25T11:56:07;101294.03;;;21.25;44.88
72359;BME280;60317;48.880;-0.862;2023-05-25T11:58:34;101298.66;;;21.23;45.25
72359;BME280;60317;48.880;-0.862;2023-05-25T12:01:13;101295.72;;;21.26;45.40
72359;BME280;60317;48.880;-0.862;2023-05-25T12:03:40;101305.41;;;21.29;45.35
72359;BME280;60317;48.880;-0.862;2023-05-25T12:06:07;101288.88;;;21.22;45.71
72359;BME280;60317;48.880;-0.862;2023-05-25T12:08:33;101299.41;;;21.25;45.53
72359;BME280;60317;48.880;-0.862;2023-05-25T12:11:00;101296.94;;;21.22;45.43
72359;BME280;60317;48.880;-0.862;2023-05-25T12:13:28;101304.84;;;21.12;45.96
72359;BME280;60317;48.880;-0.862;2023-05-25T12:15:56;101310.75;;;21.17;46.01
72359;BME280;60317;48.880;-0.862;2023-05-25T12:18:25;101320.88;;;21.14;46.02
72359;BME280;60317;48.880;-0.862;2023-05-25T12:20:52;101316.72;;;21.10;45.69
72359;BME280;60317;48.880;-0.862;2023-05-25T12:23:19;101322.09;;;21.10;46.11
72359;BME280;60317;48.880;-0.862;2023-05-25T12:25:45;101327.19;;;21.02;45.99
72359;BME280;60317;48.880;-0.862;2023-05-25T12:28:16;101316.19;;;21.05;46.04
72359;BME280;60317;48.880;-0.862;2023-05-25T12:30:43;101322.19;;;21.08;46.12
72359;BME280;60317;48.880;-0.862;2023-05-25T12:33:11;101320.59;;;21.06;46.58
72359;BME280;60317;48.880;-0.862;2023-05-25T12:35:48;101318.78;;;21.06;46.64
72359;BME280;60317;48.880;-0.862;2023-05-25T12:38:16;101326.94;;;21.05;47.18
72359;BME280;60317;48.880;-0.862;2023-05-25T12:40:43;101319.72;;;20.94;47.10
72359;BME280;60317;48.880;-0.862;2023-05-25T12:43:11;101322.28;;;20.95;46.77